Time;durP1;ratioP1;P1;durP2;ratioP2;P2;SDS_P1;SDS_P2;PMS_P1;PMS_P2;Temp;Humidity;BMP_temperature;BMP_pressure;BME280_temperature;BME280_humidity;BME280_pressure;Samples;Min_cycle;Max_cycle;Signal;HPM_P1;HPM_P2
2023/06/26 00:01:40;;;;;;;4.85;4.35;;;22.10;99.90;;;;;;4825647;29;20046;-77
2023/06/26 00:04:07;;;;;;;7.38;5.43;;;22.20;99.90;;;;;;4829070;29;20576;-77
2023/06/26 00:06:34;;;;;;;5.53;4.47;;;22.10;99.90;;;;;;4834401;29;20059;-77
2023/06/26 00:09:01;;;;;;;5.72;5.07;;;22.10;99.90;;;;;;4828325;29;20054;-77
2023/06/26 00:11:30;;;;;;;6.55;4.45;;;22.10;99.90;;;;;;4828485;29;20079;-76
2023/06/26 00:13:57;;;;;;;5.57;4.90;;;22.00;99.90;;;;;;4828354;29;20516;-78
2023/06/26 00:16:24;;;;;;;8.00;4.80;;;22.00;99.90;;;;;;4824144;29;20111;-77
2023/06/26 00:18:50;;;;;;;6.72;5.32;;;22.00;99.90;;;;;;4821847;29;20051;-78
2023/06/26 00:21:18;;;;;;;6.78;5.35;;;22.00;99.90;;;;;;4828190;29;20050;-77
2023/06/26 00:23:46;;;;;;;7.03;5.32;;;22.00;99.90;;;;;;4828832;29;20050;-77
2023/06/26 00:26:12;;;;;;;6.75;4.57;;;22.00;99.90;;;;;;4838672;29;20074;-77
2023/06/26 00:28:39;;;;;;;6.78;4.40;;;22.00;99.90;;;;;;4831999;29;20086;-77
2023/06/26 00:31:06;;;;;;;6.75;4.90;;;22.00;99.90;;;;;;4828094;29;20149;-76
2023/06/26 00:33:32;;;;;;;7.30;4.90;;;22.00;99.90;;;;;;4828193;29;20062;-77
2023/06/26 00:35:59;;;;;;;5.47;4.57;;;21.90;99.90;;;;;;4833997;29;20078;-77
2023/06/26 00:38:26;;;;;;;5.28;4.60;;;21.90;99.90;;;;;;4841775;29;20046;-77
2023/06/26 00:40:54;;;;;;;5.82;4.57;;;21.90;99.90;;;;;;4837576;29;20085;-76
2023/06/26 00:43:22;;;;;;;5.15;4.65;;;21.90;99.90;;;;;;4824630;29;20530;-77
2023/06/26 00:45:49;;;;;;;8.18;5.40;;;21.90;99.90;;;;;;4827893;29;20092;-77
2023/06/26 00:48:16;;;;;;;5.65;4.25;;;21.90;99.90;;;;;;4826612;29;20136;-77
2023/06/26 00:50:43;;;;;;;5.68;4.65;;;21.80;99.90;;;;;;4830193;29;20123;-78
2023/06/26 00:53:11;;;;;;;7.20;4.80;;;21.80;99.90;;;;;;4827009;29;20059;-77
2023/06/26 00:55:38;;;;;;;5.93;4.65;;;21.80;99.90;;;;;;4834190;29;20104;-78
2023/06/26 00:58:05;;;;;;;5.85;5.07;;;21.80;99.90;;;;;;4827290;29;20055;-77
2023/06/26 01:00:32;;;;;;;5.28;4.50;;;21.80;99.90;;;;;;4826334;29;20050;-77
2023/06/26 01:02:58;;;;;;;5.93;4.45;;;21.80;99.90;;;;;;4826703;29;20055;-77
2023/06/26 01:05:27;;;;;;;5.10;4.30;;;21.80;99.90;;;;;;4829373;29;20103;-77
2023/06/26 01:07:55;;;;;;;6.25;4.78;;;21.70;99.90;;;;;;4827117;29;20137;-77
2023/06/26 01:10:23;;;;;;;6.15;4.82;;;21.70;99.90;;;;;;4831487;29;20079;-77
2023/06/26 01:12:50;;;;;;;5.20;4.70;;;21.70;99.90;;;;;;4826929;29;20118;-77
2023/06/26 01:15:17;;;;;;;6.97;4.70;;;21.70;99.90;;;;;;4824681;29;20051;-77
2023/06/26 01:17:45;;;;;;;5.75;4.50;;;21.70;99.90;;;;;;4816472;29;20069;-77
2023/06/26 01:20:12;;;;;;;5.38;4.55;;;21.60;99.90;;;;;;4828976;29;20493;-77
2023/06/26 01:23:01;;;;;;;6.55;4.53;;;21.60;99.90;;;;;;4826482;29;20051;-77
2023/06/26 01:25:47;;;;;;;9.65;5.10;;;21.60;99.90;;;;;;4805567;29;20046;-77
2023/06/26 01:28:14;;;;;;;6.68;4.82;;;21.60;99.90;;;;;;4823627;29;20674;-77
2023/06/26 01:30:44;;;;;;;6.47;4.93;;;21.60;99.90;;;;;;4824336;29;20051;-77
2023/06/26 01:33:12;;;;;;;6.90;5.43;;;21.60;99.90;;;;;;4825733;29;20054;-77
2023/06/26 01:35:39;;;;;;;6.45;4.50;;;21.60;99.90;;;;;;4810583;29;20057;-77
2023/06/26 01:38:17;;;;;;;7.20;4.35;;;21.60;99.90;;;;;;4825272;29;20082;-78
2023/06/26 01:40:44;;;;;;;6.63;4.57;;;21.60;99.90;;;;;;4828064;29;20107;-77
2023/06/26 01:43:37;;;;;;;6.07;4.65;;;21.60;99.90;;;;;;4823887;29;20054;-77
2023/06/26 01:46:27;;;;;;;6.65;4.50;;;21.60;99.90;;;;;;4823024;29;20086;-77
2023/06/26 01:49:18;;;;;;;4.80;4.25;;;21.50;99.90;;;;;;4828299;29;20523;-77
2023/06/26 01:51:53;;;;;;;5.00;4.40;;;21.50;99.90;;;;;;4826748;29;20046;-77
2023/06/26 01:54:23;;;;;;;5.60;4.93;;;21.50;99.90;;;;;;4830329;29;20574;-77
2023/06/26 01:56:54;;;;;;;5.80;5.00;;;21.50;99.90;;;;;;4826556;29;20047;-77
2023/06/26 01:59:21;;;;;;;6.53;4.78;;;21.50;99.90;;;;;;4824512;29;20054;-77
2023/06/26 02:01:48;;;;;;;6.72;5.07;;;21.50;99.90;;;;;;4820961;29;20144;-77
2023/06/26 02:04:15;;;;;;;5.65;4.57;;;21.50;99.90;;;;;;4828372;29;20050;-77
2023/06/26 02:06:42;;;;;;;6.95;5.55;;;21.50;99.90;;;;;;4828549;29;20054;-77
2023/06/26 02:09:09;;;;;;;6.55;4.32;;;21.50;99.90;;;;;;4830179;29;20057;-77
2023/06/26 02:11:36;;;;;;;7.63;5.40;;;21.50;99.90;;;;;;4827003;29;20050;-77
2023/06/26 02:14:02;;;;;;;5.40;4.60;;;21.40;99.90;;;;;;4829757;29;20065;-77
2023/06/26 02:16:29;;;;;;;7.57;5.20;;;21.40;99.90;;;;;;4831847;29;20053;-77
2023/06/26 02:18:57;;;;;;;6.05;4.18;;;21.40;99.90;;;;;;4826479;29;20054;-77
2023/06/26 02:21:24;;;;;;;6.95;4.78;;;21.40;99.90;;;;;;4829328;29;20054;-77
2023/06/26 02:23:51;;;;;;;6.45;4.95;;;21.40;99.90;;;;;;4824642;29;20058;-77
2023/06/26 02:26:18;;;;;;;7.05;4.70;;;21.30;99.90;;;;;;4823553;29;20061;-77
2023/06/26 02:28:44;;;;;;;5.65;4.22;;;21.30;99.90;;;;;;4823199;29;20075;-77
2023/06/26 02:31:11;;;;;;;5.90;4.60;;;21.30;99.90;;;;;;4824776;29;20478;-78
2023/06/26 02:33:39;;;;;;;6.82;4.60;;;21.30;99.90;;;;;;4809549;29;20580;-77
2023/06/26 02:36:05;;;;;;;5.22;4.35;;;21.30;99.90;;;;;;4828928;29;20127;-77
2023/06/26 02:38:32;;;;;;;7.03;4.55;;;21.30;99.90;;;;;;4824914;29;20054;-77
2023/06/26 02:40:59;;;;;;;7.13;4.82;;;21.30;99.90;;;;;;4823190;29;20047;-78
2023/06/26 02:43:26;;;;;;;5.80;4.68;;;21.30;99.90;;;;;;4823102;29;20082;-78
2023/06/26 02:45:52;;;;;;;5.97;5.38;;;21.30;99.90;;;;;;4821445;29;20070;-77
2023/06/26 02:48:19;;;;;;;6.20;4.70;;;21.20;99.90;;;;;;4824616;29;20098;-77
2023/06/26 02:50:46;;;;;;;6.10;5.05;;;21.20;99.90;;;;;;4831281;29;20459;-78
2023/06/26 02:53:13;;;;;;;6.75;4.85;;;21.20;99.90;;;;;;4806811;29;20054;-77
2023/06/26 02:55:39;;;;;;;7.93;4.93;;;21.20;99.90;;;;;;4806537;29;20097;-78
2023/06/26 02:58:06;;;;;;;9.45;4.75;;;21.20;99.90;;;;;;4822028;29;20050;-77
2023/06/26 03:00:33;;;;;;;5.65;5.07;;;21.20;99.90;;;;;;4824545;29;20514;-77
2023/06/26 03:03:00;;;;;;;9.90;5.55;;;21.20;99.90;;;;;;4822856;29;20577;-77
2023/06/26 03:05:27;;;;;;;6.35;4.95;;;21.20;99.90;;;;;;4832142;29;20469;-78
2023/06/26 03:07:54;;;;;;;5.95;4.85;;;21.20;99.90;;;;;;4825815;29;20427;-77
2023/06/26 03:10:20;;;;;;;5.75;4.95;;;21.20;99.90;;;;;;4822662;29;20054;-78
2023/06/26 03:12:47;;;;;;;8.77;4.70;;;21.10;99.90;;;;;;4824884;29;20122;-78
2023/06/26 03:15:14;;;;;;;6.30;4.70;;;21.20;99.90;;;;;;4811261;29;20058;-78
2023/06/26 03:17:41;;;;;;;7.20;4.95;;;21.10;99.90;;;;;;4831408;29;20050;-78
2023/06/26 03:20:08;;;;;;;9.82;4.85;;;21.10;99.90;;;;;;4834551;29;20106;-78
2023/06/26 03:22:35;;;;;;;7.97;4.82;;;21.10;99.90;;;;;;4810244;29;20504;-78
2023/06/26 03:25:02;;;;;;;6.35;5.10;;;21.10;99.90;;;;;;4824583;29;20054;-78
2023/06/26 03:27:29;;;;;;;7.55;5.63;;;21.10;99.90;;;;;;4824340;29;20057;-77
2023/06/26 03:29:56;;;;;;;8.35;4.95;;;21.10;99.90;;;;;;4825838;29;20087;-77
2023/06/26 03:32:22;;;;;;;9.93;5.00;;;21.10;99.90;;;;;;4806887;29;20440;-77
2023/06/26 03:34:49;;;;;;;8.75;5.50;;;21.10;99.90;;;;;;4833054;29;20118;-76
2023/06/26 03:37:16;;;;;;;5.95;4.90;;;21.10;99.90;;;;;;4828518;29;20047;-76
2023/06/26 03:39:43;;;;;;;9.48;5.47;;;21.00;99.90;;;;;;4825916;29;20107;-77
2023/06/26 03:42:10;;;;;;;5.78;5.03;;;21.00;99.90;;;;;;4824049;29;20109;-77
2023/06/26 03:44:36;;;;;;;5.90;4.80;;;21.00;99.90;;;;;;4832089;29;20078;-76
2023/06/26 03:47:03;;;;;;;8.48;5.50;;;21.00;99.90;;;;;;4830247;29;20543;-78
2023/06/26 03:49:30;;;;;;;7.57;4.50;;;21.00;99.90;;;;;;4823526;29;20523;-76
2023/06/26 03:51:56;;;;;;;6.45;4.97;;;21.00;99.90;;;;;;4822641;29;20058;-77
2023/06/26 03:54:23;;;;;;;6.15;4.65;;;21.00;99.90;;;;;;4810199;29;20586;-77
2023/06/26 03:56:50;;;;;;;5.60;4.50;;;21.00;99.90;;;;;;4819597;29;20485;-77
2023/06/26 03:59:17;;;;;;;6.68;4.63;;;21.10;99.90;;;;;;4830813;29;20141;-77
2023/06/26 04:01:43;;;;;;;7.38;5.28;;;21.10;99.90;;;;;;4827282;29;20042;-77
2023/06/26 04:04:10;;;;;;;7.43;5.15;;;21.10;99.90;;;;;;4836247;29;20412;-77
2023/06/26 04:06:37;;;;;;;7.75;4.93;;;21.10;99.90;;;;;;4826024;29;20051;-76
2023/06/26 04:09:04;;;;;;;7.75;5.15;;;21.10;99.90;;;;;;4824423;29;20564;-74
2023/06/26 04:11:31;;;;;;;6.40;4.88;;;21.20;99.90;;;;;;4825630;29;20054;-77
2023/06/26 04:13:57;;;;;;;7.32;4.53;;;21.20;99.90;;;;;;4831453;29;20054;-76
2023/06/26 04:16:25;;;;;;;6.13;5.53;;;21.30;99.90;;;;;;4826802;29;20054;-77
2023/06/26 04:18:53;;;;;;;9.25;5.03;;;21.30;99.90;;;;;;4836243;29;20054;-77
2023/06/26 04:21:19;;;;;;;5.95;4.78;;;21.40;99.90;;;;;;4824778;29;20462;-77
2023/06/26 04:23:47;;;;;;;5.22;4.72;;;21.50;99.90;;;;;;4826663;29;20178;-77
2023/06/26 04:26:14;;;;;;;8.55;4.20;;;21.50;99.90;;;;;;4825602;29;20435;-76
2023/06/26 04:28:42;;;;;;;5.32;4.20;;;21.60;99.90;;;;;;4814367;29;20136;-77
2023/06/26 04:31:09;;;;;;;5.10;4.35;;;21.70;99.90;;;;;;4828798;29;20080;-77
2023/06/26 04:33:36;;;;;;;7.72;5.00;;;21.80;99.90;;;;;;4806512;29;20050;-77
2023/06/26 04:36:07;;;;;;;8.05;4.72;;;21.90;99.90;;;;;;4825272;29;20050;-77
2023/06/26 04:38:34;;;;;;;5.10;4.40;;;22.00;99.90;;;;;;4826199;29;20055;-77
2023/06/26 04:41:01;;;;;;;6.75;4.90;;;22.00;99.90;;;;;;4824968;29;20106;-77
2023/06/26 04:43:28;;;;;;;5.53;4.93;;;22.10;99.90;;;;;;4830077;29;20054;-78
2023/06/26 04:45:56;;;;;;;7.78;4.57;;;22.20;99.90;;;;;;4828861;29;20570;-77
2023/06/26 04:48:22;;;;;;;5.55;4.20;;;22.30;99.90;;;;;;4832087;29;20568;-77
2023/06/26 04:50:53;;;;;;;5.88;4.70;;;22.30;99.90;;;;;;4810686;29;20089;-77
2023/06/26 04:53:22;;;;;;;4.65;4.20;;;22.40;99.90;;;;;;4827393;29;20577;-77
2023/06/26 04:55:53;;;;;;;6.70;4.85;;;22.60;99.90;;;;;;4825512;29;20050;-76
2023/06/26 04:58:20;;;;;;;7.60;4.47;;;22.70;99.90;;;;;;4827643;29;20050;-77
2023/06/26 05:00:47;;;;;;;5.88;5.00;;;22.90;99.90;;;;;;4829776;29;20103;-76
2023/06/26 05:03:16;;;;;;;7.03;5.65;;;23.00;99.90;;;;;;4824684;29;20090;-77
2023/06/26 05:05:44;;;;;;;6.97;4.97;;;23.20;99.90;;;;;;4825537;29;20054;-77
2023/06/26 05:08:14;;;;;;;6.93;4.57;;;23.40;99.90;;;;;;4826095;29;20080;-77
2023/06/26 05:10:41;;;;;;;5.20;4.22;;;23.60;99.90;;;;;;4825561;29;20050;-77
2023/06/26 05:13:08;;;;;;;5.50;4.72;;;23.80;99.90;;;;;;4829205;29;20440;-77
2023/06/26 05:15:35;;;;;;;6.20;4.15;;;23.90;99.90;;;;;;4828812;29;20526;-76
2023/06/26 05:18:01;;;;;;;6.65;4.80;;;24.10;99.90;;;;;;4812463;29;20128;-77
2023/06/26 05:20:28;;;;;;;4.85;4.15;;;24.20;99.90;;;;;;4825595;29;20046;-78
2023/06/26 05:22:55;;;;;;;6.05;4.10;;;24.40;99.90;;;;;;4816164;29;20092;-76
2023/06/26 05:25:23;;;;;;;5.50;4.65;;;24.50;99.90;;;;;;4816031;29;20055;-77
2023/06/26 05:27:50;;;;;;;4.95;4.38;;;24.60;99.90;;;;;;4836121;29;20599;-76
2023/06/26 05:30:18;;;;;;;6.90;4.75;;;24.70;99.90;;;;;;4839613;29;20058;-77
2023/06/26 05:32:47;;;;;;;5.20;4.70;;;24.80;99.90;;;;;;4834160;29;20077;-76
2023/06/26 05:35:15;;;;;;;5.82;4.47;;;24.90;99.90;;;;;;4833106;29;20061;-77
2023/06/26 05:37:42;;;;;;;7.30;4.63;;;25.00;99.90;;;;;;4834069;29;20050;-75
2023/06/26 05:40:10;;;;;;;5.18;4.10;;;25.00;99.90;;;;;;4830635;29;20123;-78
2023/06/26 05:42:37;;;;;;;5.40;4.18;;;25.10;99.90;;;;;;4827820;29;20050;-78
2023/06/26 05:45:04;;;;;;;6.68;5.13;;;25.10;99.90;;;;;;4833055;29;20062;-78
2023/06/26 05:47:30;;;;;;;6.20;4.28;;;25.10;99.90;;;;;;4825035;29;20106;-76
2023/06/26 05:49:57;;;;;;;5.03;4.53;;;25.10;99.90;;;;;;4833146;29;20114;-76
2023/06/26 05:52:25;;;;;;;5.25;4.65;;;25.10;99.90;;;;;;4834177;29;20526;-77
2023/06/26 05:54:52;;;;;;;5.78;4.55;;;25.10;99.90;;;;;;4829263;29;20055;-77
2023/06/26 05:57:19;;;;;;;8.27;4.80;;;25.00;99.90;;;;;;4834460;29;20092;-78
2023/06/26 05:59:46;;;;;;;6.95;4.80;;;25.00;99.90;;;;;;4835277;29;20085;-78
2023/06/26 06:02:14;;;;;;;7.10;4.57;;;25.00;99.90;;;;;;4826793;29;20058;-78
2023/06/26 06:04:40;;;;;;;6.32;4.80;;;25.00;99.90;;;;;;4827218;29;20050;-78
2023/06/26 06:07:07;;;;;;;6.53;4.68;;;25.00;99.90;;;;;;4828427;29;20055;-77
2023/06/26 06:09:34;;;;;;;5.30;4.80;;;24.90;99.90;;;;;;4827293;29;20607;-78
2023/06/26 06:12:01;;;;;;;5.85;4.30;;;24.90;99.90;;;;;;4829104;29;20512;-77
2023/06/26 06:14:28;;;;;;;6.57;4.97;;;24.90;99.90;;;;;;4832233;29;20054;-77
2023/06/26 06:16:55;;;;;;;5.75;4.85;;;24.90;99.90;;;;;;4806866;29;20108;-77
2023/06/26 06:19:22;;;;;;;4.90;4.40;;;24.90;99.90;;;;;;4823723;29;20130;-77
2023/06/26 06:21:48;;;;;;;6.53;4.78;;;24.90;99.90;;;;;;4829205;29;20046;-78
2023/06/26 06:24:15;;;;;;;5.53;4.60;;;24.80;99.90;;;;;;4828208;29;20058;-77
2023/06/26 06:26:42;;;;;;;5.53;4.55;;;24.80;99.90;;;;;;4825832;29;20049;-77
2023/06/26 06:29:09;;;;;;;5.40;4.32;;;24.80;99.90;;;;;;4832904;29;20061;-77
2023/06/26 06:31:35;;;;;;;5.18;4.68;;;24.80;99.90;;;;;;4824809;29;20046;-78
2023/06/26 06:34:02;;;;;;;6.85;4.68;;;24.80;99.90;;;;;;4824186;29;20054;-78
2023/06/26 06:36:29;;;;;;;5.95;4.60;;;24.80;99.90;;;;;;4824644;29;20104;-77
2023/06/26 06:38:55;;;;;;;7.25;4.85;;;24.80;99.90;;;;;;4828924;29;20046;-78
2023/06/26 06:41:22;;;;;;;5.53;4.65;;;24.90;99.90;;;;;;4824953;29;20484;-77
2023/06/26 06:43:49;;;;;;;7.07;4.43;;;24.90;99.90;;;;;;4817631;29;20098;-78
2023/06/26 06:46:16;;;;;;;7.90;5.03;;;24.90;99.90;;;;;;4824668;29;20057;-77
2023/06/26 06:48:42;;;;;;;9.93;4.65;;;25.00;99.90;;;;;;4824610;29;20054;-77
2023/06/26 06:51:09;;;;;;;6.07;4.70;;;25.00;99.90;;;;;;4822423;29;20521;-78
2023/06/26 06:53:36;;;;;;;11.30;5.15;;;25.00;99.90;;;;;;4828930;29;20572;-77
2023/06/26 06:56:03;;;;;;;6.28;4.53;;;25.00;99.90;;;;;;4824182;29;20054;-77
2023/06/26 06:58:33;;;;;;;5.57;4.95;;;25.00;99.90;;;;;;4835509;29;20428;-78
2023/06/26 07:01:02;;;;;;;6.40;4.90;;;25.00;99.90;;;;;;4824400;29;20054;-76
2023/06/26 07:03:29;;;;;;;11.27;4.78;;;25.00;99.90;;;;;;4824832;29;20419;-78
2023/06/26 07:05:56;;;;;;;10.60;5.53;;;25.00;99.90;;;;;;4823753;29;20114;-77
2023/06/26 07:08:23;;;;;;;8.30;5.18;;;25.00;99.90;;;;;;4827047;29;20123;-77
2023/06/26 07:10:49;;;;;;;7.60;5.05;;;25.10;99.90;;;;;;4824271;29;20103;-79
2023/06/26 07:13:17;;;;;;;6.72;4.88;;;25.10;99.90;;;;;;4828403;29;20054;-76
2023/06/26 07:15:44;;;;;;;7.20;4.82;;;25.20;99.90;;;;;;4823580;29;20085;-76
2023/06/26 07:18:11;;;;;;;10.50;5.43;;;25.20;99.90;;;;;;4821342;29;20047;-77
2023/06/26 07:20:38;;;;;;;8.95;5.18;;;25.20;99.90;;;;;;4822993;29;20050;-77
2023/06/26 07:23:05;;;;;;;8.02;5.63;;;25.20;99.90;;;;;;4828593;29;20054;-76
2023/06/26 07:25:32;;;;;;;8.93;5.13;;;25.30;99.90;;;;;;4807837;29;20047;-79
2023/06/26 07:27:59;;;;;;;9.13;5.10;;;25.30;99.90;;;;;;4828159;29;20093;-76
2023/06/26 07:30:25;;;;;;;8.95;5.15;;;25.30;99.90;;;;;;4821347;29;20059;-76
2023/06/26 07:32:52;;;;;;;7.30;5.38;;;25.40;99.90;;;;;;4829602;29;20413;-80
2023/06/26 07:35:19;;;;;;;6.82;4.97;;;25.50;99.90;;;;;;4828639;29;20062;-77
2023/06/26 07:37:46;;;;;;;7.72;5.50;;;25.50;99.90;;;;;;4819898;29;20050;-79
2023/06/26 07:40:12;;;;;;;6.50;5.25;;;25.60;99.90;;;;;;4830565;29;20046;-77
2023/06/26 07:42:40;;;;;;;12.13;5.63;;;25.60;99.90;;;;;;4828112;29;20050;-77
2023/06/26 07:45:10;;;;;;;8.13;5.45;;;25.60;99.90;;;;;;4829122;29;20061;-77
2023/06/26 07:47:38;;;;;;;9.43;5.35;;;25.70;99.90;;;;;;4812038;29;20065;-77
2023/06/26 07:50:05;;;;;;;5.82;5.07;;;25.70;99.90;;;;;;4827903;29;20069;-77
2023/06/26 07:52:32;;;;;;;8.45;5.22;;;25.70;99.90;;;;;;4832525;29;20062;-77
2023/06/26 07:54:59;;;;;;;8.38;5.10;;;25.70;99.90;;;;;;4829108;29;20054;-77
2023/06/26 07:57:25;;;;;;;8.88;5.50;;;25.70;99.90;;;;;;4830056;29;20512;-77
2023/06/26 07:59:52;;;;;;;7.55;5.95;;;25.80;99.90;;;;;;4827569;29;20047;-77
2023/06/26 08:02:19;;;;;;;8.07;5.82;;;25.80;99.90;;;;;;4830932;29;20058;-77
2023/06/26 08:04:45;;;;;;;8.32;5.60;;;25.90;99.90;;;;;;4828196;29;20049;-77
2023/06/26 08:07:13;;;;;;;7.38;5.72;;;25.90;99.90;;;;;;4826920;29;20054;-77
2023/06/26 08:09:41;;;;;;;6.57;5.63;;;25.90;99.90;;;;;;4832576;29;20049;-77
2023/06/26 08:12:08;;;;;;;6.70;5.25;;;26.00;99.90;;;;;;4831416;29;20061;-77
2023/06/26 08:14:38;;;;;;;7.00;5.57;;;26.00;99.90;;;;;;4827826;29;20046;-77
2023/06/26 08:17:05;;;;;;;10.85;6.00;;;25.90;99.90;;;;;;4833390;29;20058;-79
2023/06/26 08:19:32;;;;;;;7.07;5.80;;;26.00;99.90;;;;;;4830907;29;20452;-78
2023/06/26 08:21:58;;;;;;;7.68;5.40;;;26.00;99.90;;;;;;4837805;29;20138;-79
2023/06/26 08:24:25;;;;;;;6.95;5.70;;;26.00;99.90;;;;;;4837211;29;20062;-78
2023/06/26 08:26:52;;;;;;;8.73;5.40;;;26.00;99.90;;;;;;4833011;29;20487;-78
2023/06/26 08:29:19;;;;;;;9.00;5.80;;;26.10;99.90;;;;;;4832581;29;20050;-79
2023/06/26 08:31:46;;;;;;;9.15;6.07;;;26.10;99.90;;;;;;4835609;29;20058;-77
2023/06/26 08:34:13;;;;;;;9.15;5.78;;;26.00;99.90;;;;;;4833299;29;20133;-78
2023/06/26 08:36:40;;;;;;;6.00;5.40;;;26.10;99.90;;;;;;4837714;29;20070;-78
2023/06/26 08:39:08;;;;;;;6.15;5.38;;;26.10;99.90;;;;;;4838223;29;20062;-78
2023/06/26 08:41:35;;;;;;;14.90;5.90;;;26.10;99.90;;;;;;4832365;29;20103;-79
2023/06/26 08:44:04;;;;;;;9.93;5.22;;;26.10;99.90;;;;;;4828690;29;20063;-78
2023/06/26 08:46:32;;;;;;;9.27;6.10;;;26.20;99.90;;;;;;4829294;29;20536;-78
2023/06/26 08:49:14;;;;;;;7.93;5.68;;;26.20;99.90;;;;;;4826948;29;20435;-78
2023/06/26 08:51:45;;;;;;;11.68;5.60;;;26.20;99.90;;;;;;4836206;29;20091;-79
2023/06/26 08:54:15;;;;;;;7.57;6.00;;;26.30;99.90;;;;;;4834349;29;20050;-79
2023/06/26 08:56:44;;;;;;;8.70;5.22;;;26.30;99.90;;;;;;4813685;29;20054;-79
2023/06/26 08:59:12;;;;;;;9.45;5.45;;;26.30;99.90;;;;;;4810651;29;20107;-78
2023/06/26 09:01:40;;;;;;;7.32;5.55;;;26.40;99.90;;;;;;4830468;29;20054;-78
2023/06/26 09:04:07;;;;;;;7.75;5.82;;;26.40;99.90;;;;;;4825928;29;20077;-77
2023/06/26 09:06:34;;;;;;;7.30;5.88;;;26.50;99.90;;;;;;4833111;29;20050;-78
2023/06/26 09:09:01;;;;;;;7.32;5.97;;;26.60;99.90;;;;;;4833053;29;20082;-78
2023/06/26 09:11:28;;;;;;;8.40;5.85;;;26.70;99.90;;;;;;4827093;29;20107;-78
2023/06/26 09:13:55;;;;;;;11.65;6.50;;;26.80;99.90;;;;;;4828075;29;20093;-79
2023/06/26 09:16:26;;;;;;;8.35;5.88;;;27.00;99.90;;;;;;4831144;29;20088;-78
2023/06/26 09:18:55;;;;;;;7.78;5.75;;;27.20;99.90;;;;;;4833262;29;20162;-78
2023/06/26 09:21:24;;;;;;;6.15;5.55;;;27.40;99.90;;;;;;4819339;29;20060;-78
2023/06/26 09:23:52;;;;;;;8.48;5.65;;;27.60;99.90;;;;;;4828095;29;20078;-78
2023/06/26 09:26:20;;;;;;;10.65;6.03;;;27.70;99.90;;;;;;4828402;29;20129;-78
2023/06/26 09:28:49;;;;;;;8.15;6.53;;;27.70;99.90;;;;;;4825742;29;20524;-78
2023/06/26 09:31:17;;;;;;;8.23;6.10;;;27.80;99.90;;;;;;4829891;29;20547;-78
2023/06/26 09:34:03;;;;;;;9.63;5.93;;;27.90;99.90;;;;;;4829163;29;20541;-78
2023/06/26 09:36:36;;;;;;;10.32;5.53;;;28.00;99.90;;;;;;4834528;29;20060;-78
2023/06/26 09:39:10;;;;;;;7.60;5.80;;;28.10;99.90;;;;;;4829195;29;20058;-78
2023/06/26 09:41:42;;;;;;;12.07;6.35;;;28.10;99.90;;;;;;4837700;29;20094;-78
2023/06/26 09:44:12;;;;;;;7.78;5.75;;;28.20;99.90;;;;;;4833401;29;20058;-78
2023/06/26 09:46:39;;;;;;;;;;;28.20;99.90;;;;;;4811183;29;20413;-78
2023/06/26 09:49:11;;;;;;;6.85;5.60;;;28.30;99.90;;;;;;4825448;29;19928;-78
2023/06/26 09:51:39;;;;;;;8.38;6.15;;;28.30;99.90;;;;;;4831562;29;20066;-78
2023/06/26 09:54:08;;;;;;;11.20;5.57;;;28.40;99.90;;;;;;4828492;29;20058;-77
2023/06/26 09:56:35;;;;;;;9.80;5.78;;;28.40;99.90;;;;;;4826397;29;20417;-78
2023/06/26 09:59:04;;;;;;;7.18;5.65;;;28.40;99.90;;;;;;4812258;29;20114;-79
2023/06/26 10:01:32;;;;;;;7.30;5.90;;;28.40;99.90;;;;;;4830597;29;20527;-77
2023/06/26 10:04:00;;;;;;;11.43;5.75;;;28.50;99.90;;;;;;4825412;29;20428;-78
2023/06/26 10:06:35;;;;;;;7.85;6.05;;;28.50;99.90;;;;;;4824940;29;20088;-78
2023/06/26 10:09:03;;;;;;;8.38;5.60;;;28.50;99.90;;;;;;4825395;29;20062;-78
2023/06/26 10:11:40;;;;;;;8.95;6.18;;;28.60;99.90;;;;;;4828896;29;20082;-79
2023/06/26 10:14:08;;;;;;;7.40;6.30;;;28.60;99.90;;;;;;4826493;29;20413;-78
2023/06/26 10:16:46;;;;;;;7.80;6.10;;;28.60;99.90;;;;;;4833996;29;20054;-79
2023/06/26 10:19:14;;;;;;;10.07;5.78;;;28.60;99.90;;;;;;4828921;29;20058;-78
2023/06/26 10:21:41;;;;;;;8.25;5.65;;;28.50;99.90;;;;;;4833909;29;20057;-78
2023/06/26 10:24:12;;;;;;;6.40;5.43;;;28.50;99.90;;;;;;4827543;29;20050;-78
2023/06/26 10:26:44;;;;;;;5.85;5.25;;;28.50;99.90;;;;;;4829150;29;20058;-78
2023/06/26 10:29:14;;;;;;;6.75;5.68;;;28.50;99.90;;;;;;4823027;29;20111;-78
2023/06/26 10:31:45;;;;;;;7.30;5.70;;;28.60;99.90;;;;;;4812592;29;20493;-78
2023/06/26 10:34:12;;;;;;;12.88;5.82;;;28.60;99.90;;;;;;4829016;29;20488;-79
2023/06/26 10:36:40;;;;;;;11.63;5.57;;;28.60;99.90;;;;;;4827417;29;20508;-78
2023/06/26 10:39:07;;;;;;;9.23;5.57;;;28.60;99.90;;;;;;4830095;29;20133;-78
2023/06/26 10:41:38;;;;;;;8.32;6.18;;;28.70;99.90;;;;;;4829268;29;20110;-79
2023/06/26 10:44:22;;;;;;;10.05;5.70;;;28.80;99.90;;;;;;4826427;29;20127;-79
2023/06/26 10:46:53;;;;;;;8.40;5.53;;;28.90;99.90;;;;;;4835113;29;20079;-78
2023/06/26 10:49:25;;;;;;;10.23;5.70;;;29.00;99.90;;;;;;4830443;29;20161;-79
2023/06/26 10:51:53;;;;;;;9.40;5.22;;;29.00;99.90;;;;;;4824975;29;20055;-78
2023/06/26 10:54:20;;;;;;;7.05;6.10;;;29.10;99.90;;;;;;4828503;29;20079;-78
2023/06/26 10:56:48;;;;;;;7.68;5.63;;;29.20;99.90;;;;;;4832664;29;20097;-79
2023/06/26 10:59:17;;;;;;;8.85;5.82;;;29.20;99.90;;;;;;4827919;29;20129;-78
2023/06/26 11:01:45;;;;;;;8.20;5.65;;;29.20;99.90;;;;;;4839434;29;20421;-78
2023/06/26 11:04:15;;;;;;;7.65;5.68;;;29.20;99.90;;;;;;4814765;29;20055;-77
2023/06/26 11:06:45;;;;;;;10.98;5.88;;;29.10;99.90;;;;;;4826326;29;20099;-77
2023/06/26 11:09:15;;;;;;;10.68;5.57;;;29.10;99.90;;;;;;4825057;29;20065;-77
2023/06/26 11:11:51;;;;;;;6.38;5.57;;;29.10;99.90;;;;;;4827217;29;20054;-77
2023/06/26 11:14:24;;;;;;;8.52;5.50;;;29.00;99.90;;;;;;4824515;29;20058;-77
2023/06/26 11:16:52;;;;;;;7.30;5.80;;;28.90;99.90;;;;;;4833134;29;20098;-77
2023/06/26 11:19:20;;;;;;;6.43;5.65;;;28.90;99.90;;;;;;4826542;29;20118;-77
2023/06/26 11:21:47;;;;;;;6.35;5.47;;;28.80;99.90;;;;;;4822983;29;20110;-77
2023/06/26 11:24:14;;;;;;;8.45;5.60;;;28.80;99.90;;;;;;4822441;29;20050;-77
2023/06/26 11:26:44;;;;;;;8.95;5.93;;;28.80;99.90;;;;;;4827342;29;20050;-78
2023/06/26 11:29:13;;;;;;;7.20;5.70;;;28.80;99.90;;;;;;4823083;29;20078;-77
2023/06/26 11:31:41;;;;;;;5.68;4.88;;;28.90;99.90;;;;;;4831782;29;20111;-77
2023/06/26 11:34:11;;;;;;;10.15;5.25;;;28.90;99.90;;;;;;4823259;29;20126;-77
2023/06/26 11:36:38;;;;;;;;;;;28.90;99.90;;;;;;4825657;29;20509;-77
2023/06/26 11:39:06;;;;;;;5.90;5.30;;;28.90;99.90;;;;;;4826587;29;19925;-77
2023/06/26 11:41:35;;;;;;;7.13;5.30;;;29.00;99.90;;;;;;4826628;29;20428;-78
2023/06/26 11:44:06;;;;;;;7.90;5.53;;;29.00;99.90;;;;;;4824798;29;20050;-77
2023/06/26 11:46:37;;;;;;;6.15;5.55;;;29.00;99.90;;;;;;4834547;29;20061;-77
2023/06/26 11:49:07;;;;;;;7.07;5.50;;;29.00;99.90;;;;;;4828283;29;20058;-76
2023/06/26 11:51:38;;;;;;;8.32;5.38;;;29.00;99.90;;;;;;4827570;29;20064;-77
2023/06/26 11:54:04;;;;;;;15.75;4.95;;;29.00;99.90;;;;;;4824350;29;20074;-78
2023/06/26 11:56:32;;;;;;;7.40;4.95;;;29.00;99.90;;;;;;4827092;29;20060;-78
2023/06/26 11:59:10;;;;;;;5.30;4.80;;;29.00;99.90;;;;;;4824342;29;20481;-78
2023/06/26 12:01:40;;;;;;;5.90;5.30;;;29.00;99.90;;;;;;4831450;29;20103;-77
2023/06/26 12:04:12;;;;;;;7.22;4.70;;;29.00;99.90;;;;;;4826219;29;20058;-78
2023/06/26 12:06:41;;;;;;;7.10;4.45;;;28.90;99.90;;;;;;4824181;29;20062;-77
2023/06/26 12:09:10;;;;;;;5.35;4.30;;;29.00;99.90;;;;;;4828394;29;20055;-77
2023/06/26 12:11:40;;;;;;;6.53;4.57;;;29.00;99.90;;;;;;4827614;29;20062;-77
2023/06/26 12:14:07;;;;;;;8.77;4.00;;;29.10;99.90;;;;;;4819952;29;20067;-77
2023/06/26 12:16:35;;;;;;;5.03;4.38;;;29.10;99.90;;;;;;4832877;29;20095;-77
2023/06/26 12:19:04;;;;;;;8.23;4.30;;;29.20;99.90;;;;;;4826792;29;20485;-77
2023/06/26 12:21:37;;;;;;;6.60;4.63;;;29.20;99.90;;;;;;4826580;29;20082;-77
2023/06/26 12:24:05;;;;;;;5.72;3.70;;;29.30;99.90;;;;;;4829387;29;20054;-77
2023/06/26 12:26:38;;;;;;;7.25;3.55;;;29.30;99.90;;;;;;4832054;29;20106;-78
2023/06/26 12:29:06;;;;;;;3.53;3.22;;;29.40;99.90;;;;;;4831500;29;20584;-77
2023/06/26 12:31:33;;;;;;;4.78;3.97;;;29.50;99.90;;;;;;4835068;29;20046;-78
2023/06/26 12:34:00;;;;;;;4.00;3.22;;;29.60;99.90;;;;;;4828162;29;20054;-77
2023/06/26 12:36:27;;;;;;;4.72;3.63;;;29.70;99.90;;;;;;4811202;29;20064;-78
2023/06/26 12:38:54;;;;;;;6.55;3.40;;;29.80;99.90;;;;;;4828856;29;20441;-78
2023/06/26 12:41:24;;;;;;;7.32;3.53;;;29.80;99.90;;;;;;4833023;29;20057;-77
2023/06/26 12:43:56;;;;;;;4.22;3.28;;;29.90;99.90;;;;;;4830775;29;21326;-78
2023/06/26 12:46:36;;;;;;;10.40;3.88;;;29.90;99.90;;;;;;4819300;29;20103;-78
2023/06/26 12:49:02;;;;;;;5.40;3.45;;;30.00;99.90;;;;;;4828489;29;20050;-78
2023/06/26 12:51:37;;;;;;;6.22;3.30;;;30.00;99.90;;;;;;4827836;29;20066;-78